createdAt,value
2023-05-10T00:00:18.534Z,4.10
2023-05-10T00:03:07.259Z,4.17
2023-05-10T00:05:55.769Z,4.07
2023-05-10T00:08:45.700Z,4.03
2023-05-10T00:11:34.250Z,4.13
2023-05-10T00:14:22.762Z,4.00
2023-05-10T00:17:12.266Z,3.90
2023-05-10T00:20:01.452Z,4.00
2023-05-10T00:22:49.910Z,4.70
2023-05-10T00:25:39.938Z,4.40
2023-05-10T00:28:29.819Z,4.30
2023-05-10T00:31:18.198Z,4.40
2023-05-10T00:34:06.837Z,4.00
2023-05-10T00:36:55.597Z,4.50
2023-05-10T00:39:44.030Z,4.90
2023-05-10T00:42:33.817Z,4.33
2023-05-10T00:45:22.492Z,4.20
2023-05-10T00:48:11.186Z,4.73
2023-05-10T00:50:59.669Z,4.73
2023-05-10T00:53:48.628Z,4.40
2023-05-10T00:56:37.278Z,4.40
2023-05-10T00:59:27.317Z,4.60
2023-05-10T01:02:16.257Z,4.43
2023-05-10T01:05:06.382Z,4.33
2023-05-10T01:07:54.921Z,4.70
2023-05-10T01:10:44.134Z,4.63
2023-05-10T01:13:38.434Z,4.63
2023-05-10T01:16:29.505Z,4.87
2023-05-10T01:19:24.254Z,4.30
2023-05-10T01:22:31.859Z,4.40
2023-05-10T01:26:17.031Z,4.60
2023-05-10T01:29:32.121Z,4.60
2023-05-10T01:32:33.294Z,4.40
2023-05-10T01:35:29.323Z,4.50
2023-05-10T01:38:23.530Z,4.80
2023-05-10T01:41:18.671Z,4.73
2023-05-10T01:44:18.527Z,4.20
2023-05-10T01:47:11.967Z,4.67
2023-05-10T01:50:05.242Z,4.40
2023-05-10T01:52:57.037Z,4.30
2023-05-10T01:55:49.062Z,4.40
2023-05-10T01:58:43.251Z,4.80
2023-05-10T02:01:32.654Z,4.20
2023-05-10T02:04:24.150Z,4.70
2023-05-10T02:07:15.397Z,4.77
2023-05-10T02:10:04.738Z,4.27
2023-05-10T02:12:54.967Z,4.40
2023-05-10T02:15:45.338Z,4.70
2023-05-10T02:18:35.932Z,4.03
2023-05-10T02:21:25.168Z,4.23
2023-05-10T02:24:17.339Z,3.80
2023-05-10T02:27:12.021Z,3.90
2023-05-10T02:30:00.796Z,4.40
2023-05-10T02:32:50.529Z,4.10
2023-05-10T02:35:40.172Z,4.00
2023-05-10T02:38:29.552Z,3.90
2023-05-10T02:41:21.126Z,3.93
2023-05-10T02:44:11.336Z,4.20
2023-05-10T02:47:00.224Z,4.20
2023-05-10T02:49:49.345Z,4.30
2023-05-10T02:52:42.752Z,3.83
2023-05-10T02:55:35.467Z,4.23
2023-05-10T02:58:25.280Z,4.40
2023-05-10T03:01:13.780Z,4.17
2023-05-10T03:04:02.257Z,3.90
2023-05-10T03:06:50.880Z,3.90
2023-05-10T03:09:39.389Z,3.87
2023-05-10T03:12:35.798Z,4.00
2023-05-10T03:15:36.124Z,3.70
2023-05-10T03:18:31.600Z,3.80
2023-05-10T03:21:22.935Z,3.93
2023-05-10T03:24:13.952Z,4.17
2023-05-10T03:27:05.268Z,3.60
2023-05-10T03:29:54.928Z,4.03
2023-05-10T03:32:44.826Z,3.73
2023-05-10T03:35:33.493Z,3.60
2023-05-10T03:38:21.970Z,4.00
2023-05-10T03:41:10.590Z,4.00
2023-05-10T03:43:59.041Z,4.17
2023-05-10T03:46:47.552Z,4.20
2023-05-10T03:49:37.501Z,3.93
2023-05-10T03:52:26.442Z,4.47
2023-05-10T03:55:14.921Z,3.80
2023-05-10T03:58:03.404Z,4.00
2023-05-10T04:00:53.746Z,4.30
2023-05-10T04:03:42.395Z,4.13
2023-05-10T04:06:33.027Z,4.17
2023-05-10T04:09:21.746Z,3.93
2023-05-10T04:12:11.047Z,3.50
2023-05-10T04:14:59.683Z,3.70
2023-05-10T04:17:48.276Z,3.83
2023-05-10T04:20:36.780Z,3.90
2023-05-10T04:23:26.984Z,3.90
2023-05-10T04:26:16.061Z,3.67
2023-05-10T04:29:04.612Z,3.70
2023-05-10T04:31:53.213Z,3.60
2023-05-10T04:34:41.625Z,4.10
2023-05-10T04:37:30.027Z,3.80
2023-05-10T04:40:20.107Z,3.70
2023-05-10T04:43:08.674Z,3.60
2023-05-10T04:45:59.175Z,3.53
2023-05-10T04:48:47.727Z,3.90
2023-05-10T04:51:36.190Z,3.87
2023-05-10T04:54:24.819Z,3.80
2023-05-10T04:57:14.686Z,3.83
2023-05-10T05:00:03.321Z,3.63
2023-05-10T05:02:52.788Z,3.50
2023-05-10T05:05:41.459Z,4.00
2023-05-10T05:08:29.928Z,3.60
2023-05-10T05:11:18.645Z,3.57
2023-05-10T05:14:08.439Z,3.67
2023-05-10T05:16:57.664Z,3.60
2023-05-10T05:19:46.007Z,3.80
2023-05-10T05:22:34.610Z,3.77
2023-05-10T05:25:23.366Z,3.30
2023-05-10T05:28:11.982Z,3.70
2023-05-10T05:31:01.952Z,3.10
2023-05-10T05:33:50.753Z,3.27
2023-05-10T05:36:40.514Z,3.47
2023-05-10T05:39:29.357Z,3.80
2023-05-10T05:42:19.908Z,3.50
2023-05-10T05:45:09.950Z,3.40
2023-05-10T05:47:59.883Z,3.53
2023-05-10T05:50:48.536Z,3.23
2023-05-10T05:53:37.185Z,3.33
2023-05-10T05:56:26.227Z,3.33
2023-05-10T05:59:14.776Z,3.10
2023-05-10T06:02:03.385Z,2.97
2023-05-10T06:04:53.392Z,3.03
2023-05-10T06:07:43.230Z,3.00
2023-05-10T06:10:31.752Z,3.07
2023-05-10T06:13:20.353Z,3.20
2023-05-10T06:16:09.179Z,2.90
2023-05-10T06:18:57.854Z,3.37
2023-05-10T06:21:47.738Z,2.97
2023-05-10T06:24:36.302Z,3.03
2023-05-10T06:27:24.683Z,2.80
2023-05-10T06:30:15.815Z,2.73
2023-05-10T06:33:04.677Z,2.90
2023-05-10T06:35:53.275Z,3.40
2023-05-10T06:38:43.200Z,2.80
2023-05-10T06:41:31.639Z,3.27
2023-05-10T06:44:20.166Z,3.20
2023-05-10T06:47:08.524Z,2.70
2023-05-10T06:49:57.031Z,3.03
2023-05-10T06:52:45.532Z,2.93
2023-05-10T06:55:35.493Z,3.20
2023-05-10T06:58:24.390Z,2.83
2023-05-10T07:01:13.004Z,2.60
2023-05-10T07:04:01.649Z,2.70
2023-05-10T07:06:50.737Z,2.60
2023-05-10T07:09:39.174Z,2.70
2023-05-10T07:12:29.098Z,2.87
2023-05-10T07:15:17.715Z,2.60
2023-05-10T07:18:07.750Z,2.70
2023-05-10T07:20:56.439Z,2.57
2023-05-10T07:23:45.300Z,2.40
2023-05-10T07:26:33.843Z,2.60
2023-05-10T07:29:23.965Z,2.43
2023-05-10T07:32:12.529Z,2.70
2023-05-10T07:35:01.495Z,2.63
2023-05-10T07:37:50.059Z,2.90
2023-05-10T07:40:38.407Z,2.40
2023-05-10T07:43:26.876Z,2.37
2023-05-10T07:46:16.838Z,2.50
2023-05-10T07:49:05.383Z,2.50
2023-05-10T07:51:53.843Z,2.43
2023-05-10T07:54:42.546Z,2.53
2023-05-10T07:57:31.830Z,2.40
2023-05-10T08:00:21.566Z,2.60
2023-05-10T08:03:11.683Z,2.53
2023-05-10T08:06:00.814Z,2.27
2023-05-10T08:08:51.303Z,2.40
2023-05-10T08:11:39.773Z,2.60
2023-05-10T08:14:29.244Z,2.17
2023-05-10T08:17:19.772Z,2.33
2023-05-10T08:20:11.203Z,2.30
2023-05-10T08:22:59.861Z,2.40
2023-05-10T08:25:48.281Z,2.83
2023-05-10T08:28:36.731Z,2.63
2023-05-10T08:31:25.334Z,2.23
2023-05-10T08:34:13.877Z,2.53
2023-05-10T08:37:03.760Z,3.00
2023-05-10T08:39:52.259Z,2.60
2023-05-10T08:42:45.564Z,2.47
2023-05-10T08:45:35.782Z,2.70
2023-05-10T08:48:27.033Z,2.63
2023-05-10T08:51:17.596Z,2.67
2023-05-10T08:54:08.066Z,2.67
2023-05-10T08:56:56.571Z,2.57
2023-05-10T08:59:45.588Z,2.27
2023-05-10T09:02:34.220Z,2.80
2023-05-10T09:05:22.829Z,2.70
2023-05-10T09:08:11.662Z,2.77
2023-05-10T09:11:04.215Z,2.67
2023-05-10T09:13:54.575Z,2.53
2023-05-10T09:16:43.602Z,2.20
2023-05-10T09:19:32.400Z,2.53
2023-05-10T09:22:20.917Z,2.70
2023-05-10T09:25:10.941Z,3.03
2023-05-10T09:28:00.879Z,2.60
2023-05-10T09:30:56.756Z,2.40
2023-05-10T09:33:47.151Z,2.50
2023-05-10T09:36:35.743Z,2.60
2023-05-10T09:39:33.378Z,2.30
2023-05-10T09:42:22.031Z,2.37
2023-05-10T09:45:12.404Z,2.40
2023-05-10T09:48:02.917Z,2.43
2023-05-10T09:51:00.385Z,2.27
2023-05-10T09:53:48.917Z,2.90
2023-05-10T09:56:40.093Z,2.90
2023-05-10T09:59:29.428Z,2.50
2023-05-10T10:02:19.637Z,2.40
2023-05-10T10:05:09.527Z,2.50
2023-05-10T10:07:59.561Z,2.47
2023-05-10T10:10:51.783Z,2.40
2023-05-10T10:13:40.471Z,2.40
2023-05-10T10:16:31.107Z,2.67
2023-05-10T10:19:21.970Z,2.57
2023-05-10T10:22:11.930Z,2.43
2023-05-10T10:25:00.900Z,2.00
2023-05-10T10:28:08.716Z,2.50
2023-05-10T10:30:58.546Z,2.17
2023-05-10T10:34:01.647Z,2.20
2023-05-10T10:36:51.519Z,2.30
2023-05-10T10:39:40.413Z,2.20
2023-05-10T10:42:47.052Z,2.50
2023-05-10T10:45:35.864Z,2.30
2023-05-10T10:48:24.954Z,2.10
2023-05-10T10:51:15.958Z,2.50
2023-05-10T10:54:12.974Z,2.50
2023-05-10T10:57:14.683Z,2.40
2023-05-10T11:00:23.877Z,2.40
2023-05-10T11:03:15.582Z,2.33
2023-05-10T11:06:04.388Z,2.00
2023-05-10T11:08:54.171Z,2.42
2023-05-10T11:11:56.169Z,2.10
2023-05-10T11:14:44.974Z,2.13
2023-05-10T11:17:33.922Z,2.30
2023-05-10T11:20:25.834Z,2.60
2023-05-10T11:23:16.880Z,2.00
2023-05-10T11:26:07.025Z,2.28
2023-05-10T11:29:00.422Z,2.00
2023-05-10T11:31:50.042Z,2.03
2023-05-10T11:34:38.454Z,2.40
2023-05-10T11:37:33.326Z,2.17
2023-05-10T11:40:25.576Z,2.00
2023-05-10T11:43:14.088Z,1.90
2023-05-10T11:46:04.070Z,2.15
2023-05-10T11:48:54.009Z,2.08
2023-05-10T11:51:44.559Z,2.15
2023-05-10T11:54:35.017Z,2.28
2023-05-10T11:57:28.437Z,2.40
2023-05-10T12:00:18.147Z,2.10
2023-05-10T12:03:08.852Z,2.03
2023-05-10T12:05:58.315Z,1.90
2023-05-10T12:08:48.385Z,1.80
2023-05-10T12:11:43.573Z,2.08
2023-05-10T12:14:36.913Z,2.40
2023-05-10T12:17:30.097Z,2.10
2023-05-10T12:20:22.434Z,2.10
2023-05-10T12:23:12.138Z,2.10
2023-05-10T12:26:05.500Z,2.17
2023-05-10T12:28:55.249Z,1.90
2023-05-10T12:31:57.466Z,2.17
2023-05-10T12:34:49.362Z,2.30
2023-05-10T12:37:40.144Z,1.98
2023-05-10T12:40:28.783Z,2.07
2023-05-10T12:43:17.596Z,2.30
2023-05-10T12:46:10.613Z,2.30
2023-05-10T12:49:08.555Z,2.40
2023-05-10T12:51:58.326Z,2.30
2023-05-10T12:54:48.448Z,2.50
2023-05-10T12:57:36.860Z,2.27
2023-05-10T13:00:25.508Z,2.13
2023-05-10T13:03:14.013Z,2.07
2023-05-10T13:06:02.646Z,2.27
2023-05-10T13:08:51.454Z,2.10
2023-05-10T13:11:41.645Z,2.10
2023-05-10T13:14:30.446Z,2.27
2023-05-10T13:17:19.049Z,2.80
2023-05-10T13:20:08.836Z,2.20
2023-05-10T13:22:57.413Z,2.47
2023-05-10T13:25:46.012Z,2.20
2023-05-10T13:28:36.094Z,2.53
2023-05-10T13:31:24.709Z,2.37
2023-05-10T13:34:13.516Z,2.40
2023-05-10T13:37:02.665Z,2.33
2023-05-10T13:39:51.288Z,2.30
2023-05-10T13:42:40.113Z,2.10
2023-05-10T13:45:30.428Z,2.03
2023-05-10T13:48:19.563Z,2.80
2023-05-10T13:51:08.358Z,2.30
2023-05-10T13:53:57.060Z,2.20
2023-05-10T13:56:46.357Z,2.00
2023-05-10T13:59:35.068Z,2.17
2023-05-10T14:02:27.050Z,2.20
2023-05-10T14:05:19.910Z,2.00
2023-05-10T14:08:14.238Z,1.83
2023-05-10T14:11:03.467Z,1.80
2023-05-10T14:13:51.987Z,2.10
2023-05-10T14:16:40.748Z,1.80
2023-05-10T14:19:33.487Z,2.00
2023-05-10T14:22:22.105Z,2.23
2023-05-10T14:25:11.379Z,2.67
2023-05-10T14:27:59.856Z,1.97
2023-05-10T14:30:48.596Z,2.23
2023-05-10T14:33:37.114Z,2.00
2023-05-10T14:36:27.105Z,2.27
2023-05-10T14:39:15.657Z,2.20
2023-05-10T14:42:05.012Z,1.90
2023-05-10T14:44:53.473Z,2.00
2023-05-10T14:47:41.980Z,2.00
2023-05-10T14:50:35.773Z,2.00
2023-05-10T14:53:27.090Z,2.10
2023-05-10T14:56:15.589Z,2.47
2023-05-10T14:59:05.049Z,2.60
2023-05-10T15:01:54.124Z,2.50
2023-05-10T15:04:42.963Z,2.50
2023-05-10T15:07:32.457Z,2.30
2023-05-10T15:10:22.677Z,2.37
2023-05-10T15:13:11.248Z,2.20
2023-05-10T15:15:59.924Z,2.20
2023-05-10T15:18:48.767Z,2.43
2023-05-10T15:21:40.081Z,2.20
2023-05-10T15:24:28.555Z,2.40
2023-05-10T15:27:18.458Z,1.90
2023-05-10T15:30:08.475Z,2.50
2023-05-10T15:32:57.127Z,2.20
2023-05-10T15:35:45.761Z,2.13
2023-05-10T15:38:34.175Z,2.23
2023-05-10T15:41:22.977Z,2.30
2023-05-10T15:44:13.318Z,2.60
2023-05-10T15:47:01.888Z,2.60
2023-05-10T15:49:50.633Z,2.47
2023-05-10T15:52:39.177Z,2.40
2023-05-10T15:55:28.050Z,2.23
2023-05-10T15:58:16.858Z,2.27
2023-05-10T16:01:07.213Z,2.33
2023-05-10T16:03:55.789Z,2.70
2023-05-10T16:06:44.298Z,2.57
2023-05-10T16:09:32.786Z,2.50
2023-05-10T16:12:21.425Z,2.87
2023-05-10T16:15:10.848Z,2.63
2023-05-10T16:18:00.876Z,2.33
2023-05-10T16:20:50.149Z,2.87
2023-05-10T16:23:38.697Z,2.70
2023-05-10T16:26:27.195Z,2.50
2023-05-10T16:29:16.032Z,2.70
2023-05-10T16:32:04.451Z,2.90
2023-05-10T16:34:54.541Z,3.30
2023-05-10T16:37:42.975Z,3.00
2023-05-10T16:40:31.558Z,3.37
2023-05-10T16:43:20.282Z,3.50
2023-05-10T16:46:12.336Z,4.20
2023-05-10T16:49:01.353Z,3.60
2023-05-10T16:51:51.224Z,3.60
2023-05-10T16:54:39.737Z,3.80
2023-05-10T16:57:28.825Z,3.97
2023-05-10T17:00:18.295Z,3.80
2023-05-10T17:03:07.032Z,3.60
2023-05-10T17:05:55.615Z,3.90
2023-05-10T17:08:46.105Z,3.83
2023-05-10T17:11:34.584Z,4.00
2023-05-10T17:14:23.212Z,3.63
2023-05-10T17:17:11.792Z,3.60
2023-05-10T17:20:00.623Z,3.67
2023-05-10T17:22:49.668Z,3.90
2023-05-10T17:25:39.456Z,3.70
2023-05-10T17:28:27.844Z,3.80
2023-05-10T17:31:16.282Z,3.73
2023-05-10T17:34:05.861Z,3.53
2023-05-10T17:36:54.379Z,3.67
2023-05-10T17:39:43.025Z,3.80
2023-05-10T17:42:32.938Z,3.60
2023-05-10T17:45:21.584Z,3.80
2023-05-10T17:48:11.515Z,3.47
2023-05-10T17:51:00.400Z,3.50
2023-05-10T17:53:49.013Z,3.77
2023-05-10T17:56:37.513Z,3.57
2023-05-10T17:59:27.497Z,3.40
2023-05-10T18:02:16.061Z,3.50
2023-05-10T18:05:04.707Z,3.20
2023-05-10T18:07:53.480Z,3.00
2023-05-10T18:10:42.325Z,3.20
2023-05-10T18:13:30.695Z,2.93
2023-05-10T18:16:20.549Z,3.37
2023-05-10T18:19:09.176Z,3.30
2023-05-10T18:21:57.723Z,3.60
2023-05-10T18:24:47.136Z,3.60
2023-05-10T18:27:35.878Z,3.50
2023-05-10T18:30:24.577Z,3.47
2023-05-10T18:33:14.489Z,3.50
2023-05-10T18:36:03.045Z,3.73
2023-05-10T18:38:51.911Z,3.70
2023-05-10T18:41:40.693Z,3.53
2023-05-10T18:44:29.339Z,3.47
2023-05-10T18:47:17.792Z,3.40
2023-05-10T18:50:09.767Z,3.80
2023-05-10T18:52:58.292Z,3.30
2023-05-10T18:55:46.857Z,3.53
2023-05-10T18:58:36.080Z,3.53
2023-05-10T19:01:24.684Z,3.80
2023-05-10T19:04:13.483Z,3.57
2023-05-10T19:07:03.631Z,3.60
2023-05-10T19:09:52.153Z,3.40
2023-05-10T19:12:41.325Z,3.57
2023-05-10T19:15:29.790Z,3.63
2023-05-10T19:18:18.194Z,4.07
2023-05-10T19:21:07.792Z,3.80
2023-05-10T19:23:58.319Z,3.70
2023-05-10T19:26:46.953Z,3.60
2023-05-10T19:29:36.051Z,3.47
2023-05-10T19:32:25.616Z,3.70
2023-05-10T19:35:16.216Z,3.83
2023-05-10T19:38:05.701Z,4.00
2023-05-10T19:40:58.331Z,3.30
2023-05-10T19:43:47.100Z,3.50
2023-05-10T19:46:35.791Z,3.80
2023-05-10T19:49:24.795Z,3.90
2023-05-10T19:52:13.621Z,3.87
2023-05-10T19:55:02.397Z,3.90
2023-05-10T19:57:52.979Z,3.60
2023-05-10T20:00:41.487Z,4.00
2023-05-10T20:03:30.673Z,3.80
2023-05-10T20:06:19.375Z,3.70
2023-05-10T20:09:08.693Z,4.13
2023-05-10T20:11:57.479Z,3.80
2023-05-10T20:14:47.799Z,4.23
2023-05-10T20:17:37.244Z,4.40
2023-05-10T20:20:27.396Z,4.20
2023-05-10T20:23:16.448Z,4.20
2023-05-10T20:26:05.799Z,4.20
2023-05-10T20:28:54.402Z,4.20
2023-05-10T20:31:44.371Z,4.53
2023-05-10T20:34:32.815Z,4.30
2023-05-10T20:37:21.319Z,4.90
2023-05-10T20:40:11.167Z,4.17
2023-05-10T20:43:00.051Z,4.70
2023-05-10T20:45:48.602Z,4.13
2023-05-10T20:48:38.393Z,3.87
2023-05-10T20:51:27.174Z,4.70
2023-05-10T20:54:15.787Z,4.30
2023-05-10T20:57:04.539Z,4.63
2023-05-10T20:59:53.154Z,4.03
2023-05-10T21:02:44.557Z,4.00
2023-05-10T21:05:34.589Z,4.43
2023-05-10T21:08:23.100Z,4.20
2023-05-10T21:11:11.530Z,4.70
2023-05-10T21:14:00.225Z,4.60
2023-05-10T21:16:48.586Z,4.50
2023-05-10T21:19:37.090Z,4.40
2023-05-10T21:22:27.028Z,4.53
2023-05-10T21:25:15.657Z,4.90
2023-05-10T21:28:04.229Z,4.40
2023-05-10T21:30:52.991Z,4.60
2023-05-10T21:33:41.986Z,4.60
2023-05-10T21:36:30.445Z,5.30
2023-05-10T21:39:20.489Z,4.93
2023-05-10T21:42:09.087Z,4.90
2023-05-10T21:44:57.618Z,5.23
2023-05-10T21:47:46.078Z,5.20
2023-05-10T21:50:34.624Z,4.60
2023-05-10T21:53:23.478Z,4.93
2023-05-10T21:56:14.153Z,5.00
2023-05-10T21:59:03.993Z,5.40
2023-05-10T22:01:53.312Z,4.90
2023-05-10T22:04:42.177Z,4.90
2023-05-10T22:07:32.296Z,4.87
2023-05-10T22:10:21.494Z,4.40
2023-05-10T22:13:12.054Z,4.47
2023-05-10T22:16:01.607Z,4.30
2023-05-10T22:18:51.448Z,4.33
2023-05-10T22:21:40.852Z,4.13
2023-05-10T22:24:29.415Z,4.33
2023-05-10T22:27:17.996Z,4.67
2023-05-10T22:30:09.619Z,4.30
2023-05-10T22:33:00.210Z,4.03
2023-05-10T22:35:48.933Z,3.77
2023-05-10T22:38:37.650Z,3.53
2023-05-10T22:41:26.234Z,3.87
2023-05-10T22:44:14.661Z,4.30
2023-05-10T22:47:06.626Z,3.73
2023-05-10T22:49:55.567Z,3.70
2023-05-10T22:52:44.176Z,3.63
2023-05-10T22:55:32.781Z,3.97
2023-05-10T22:58:21.198Z,4.10
2023-05-10T23:01:09.894Z,3.60
2023-05-10T23:03:59.943Z,3.90
2023-05-10T23:06:48.450Z,4.07
2023-05-10T23:09:36.953Z,3.90
2023-05-10T23:12:25.714Z,4.20
2023-05-10T23:15:14.082Z,3.80
2023-05-10T23:18:02.761Z,3.90
2023-05-10T23:20:53.923Z,3.97
2023-05-10T23:23:42.428Z,4.10
2023-05-10T23:26:30.898Z,3.90
2023-05-10T23:29:19.293Z,3.80
2023-05-10T23:32:07.912Z,3.70
2023-05-10T23:34:56.600Z,3.77
2023-05-10T23:37:46.414Z,3.77
2023-05-10T23:40:36.945Z,3.80
2023-05-10T23:43:25.662Z,3.47
2023-05-10T23:46:14.121Z,4.00
2023-05-10T23:49:02.620Z,3.93
2023-05-10T23:51:51.166Z,3.70
2023-05-10T23:54:41.331Z,3.90
2023-05-10T23:57:29.799Z,3.77
